Time;durP1;ratioP1;P1;durP2;ratioP2;P2;SDS_P1;SDS_P2;PMS_P1;PMS_P2;Temp;Humidity;BMP_temperature;BMP_pressure;BME280_temperature;BME280_humidity;BME280_pressure;Samples;Min_cycle;Max_cycle;Signal;HPM_P1;HPM_P2
2021/09/20 00:00:47;;;;;;;17.02;6.57;;;;;;;4.64;91.13;99680.94;5108022;27;20080;-80
2021/09/20 00:03:13;;;;;;;27.45;7.18;;;;;;;4.61;90.63;99683.75;5108171;28;20024;-81
2021/09/20 00:05:38;;;;;;;19.83;6.38;;;;;;;4.59;90.89;99685.59;5133121;27;20459;-81
2021/09/20 00:08:04;;;;;;;20.15;6.93;;;;;;;4.60;90.95;99668.94;5120363;27;20039;-81
2021/09/20 00:10:30;;;;;;;20.83;6.78;;;;;;;4.58;91.08;99677.81;5124406;27;20043;-79
2021/09/20 00:12:56;;;;;;;19.17;6.95;;;;;;;4.60;91.26;99661.09;5120381;27;20030;-80
2021/09/20 00:15:22;;;;;;;16.48;6.05;;;;;;;4.62;91.11;99685.44;5127455;27;20118;-80
2021/09/20 00:17:48;;;;;;;21.98;6.55;;;;;;;4.66;91.56;99671.25;5133879;27;20031;-81
2021/09/20 00:20:14;;;;;;;18.15;6.63;;;;;;;4.67;91.25;99674.69;5131291;27;20035;-82
2021/09/20 00:22:41;;;;;;;19.33;7.25;;;;;;;4.69;91.13;99665.00;5114979;28;20058;-82
2021/09/20 00:25:08;;;;;;;25.80;6.90;;;;;;;4.66;91.28;99654.66;5080097;28;20422;-82
2021/09/20 00:27:34;;;;;;;20.58;6.97;;;;;;;4.66;90.66;99671.25;5115245;28;20380;-81
2021/09/20 00:30:00;;;;;;;25.85;7.28;;;;;;;4.74;90.71;99656.91;5096407;28;20036;-82
2021/09/20 00:32:26;;;;;;;20.83;7.75;;;;;;;4.74;90.43;99667.38;5096314;28;20055;-84
2021/09/20 00:34:52;;;;;;;20.92;6.90;;;;;;;4.77;90.33;99677.69;5114354;28;20028;-81
2021/09/20 00:37:18;;;;;;;17.05;5.45;;;;;;;4.76;90.64;99666.38;5079494;28;20027;-81
2021/09/20 00:39:44;;;;;;;19.92;6.55;;;;;;;4.78;90.62;99663.66;5114256;28;20040;-84
2021/09/20 00:42:10;;;;;;;18.98;6.57;;;;;;;4.77;90.25;99688.16;5079026;28;20026;-80
2021/09/20 00:44:35;;;;;;;22.90;7.07;;;;;;;4.75;90.12;99663.81;5096012;28;20028;-81
2021/09/20 00:47:02;;;;;;;19.40;5.85;;;;;;;4.73;89.56;99670.91;5095702;28;20124;-80
2021/09/20 00:49:28;;;;;;;19.77;6.95;;;;;;;4.74;90.22;99678.69;5114201;28;20043;-81
2021/09/20 00:52:00;;;;;;;27.13;7.53;;;;;;;4.72;89.87;99667.44;5080740;28;20212;-82
2021/09/20 00:54:28;;;;;;;22.60;6.22;;;;;;;4.73;89.55;99678.78;5114660;27;20108;-83
2021/09/20 00:56:53;;;;;;;20.58;7.00;;;;;;;4.72;89.69;99667.44;5124482;27;20034;-82
2021/09/20 00:59:20;;;;;;;21.75;7.38;;;;;;;4.68;89.45;99665.91;5099259;27;20070;-83
2021/09/20 01:01:47;;;;;;;15.63;6.10;;;;;;;4.68;89.99;99656.28;5112769;28;20066;-82
2021/09/20 01:04:13;;;;;;;17.67;5.97;;;;;;;4.70;90.14;99656.22;5095990;28;20507;-85
2021/09/20 01:06:38;;;;;;;20.20;6.68;;;;;;;4.70;89.83;99678.00;5112842;28;20099;-82
2021/09/20 01:09:05;;;;;;;19.63;6.22;;;;;;;4.71;89.63;99657.91;5112718;28;20779;-83
2021/09/20 01:11:30;;;;;;;18.73;7.10;;;;;;;4.70;89.29;99651.81;5115896;27;20035;-81
2021/09/20 01:13:56;;;;;;;20.38;6.97;;;;;;;4.72;89.08;99653.50;5112780;27;20041;-81
2021/09/20 01:16:22;;;;;;;21.83;6.13;;;;;;;4.73;89.43;99655.19;5133391;27;20053;-82
2021/09/20 01:18:48;;;;;;;16.23;6.10;;;;;;;4.74;89.19;99649.88;5120559;27;20035;-81
2021/09/20 01:21:15;;;;;;;22.63;6.35;;;;;;;4.75;89.56;99655.94;5095242;28;20043;-82
2021/09/20 01:23:42;;;;;;;23.60;8.13;;;;;;;4.73;89.67;99653.41;5112376;28;20357;-83
2021/09/20 01:26:09;;;;;;;13.85;5.50;;;;;;;4.71;89.31;99655.28;5112108;28;20112;-81
2021/09/20 01:28:35;;;;;;;19.63;7.28;;;;;;;4.77;89.59;99646.25;5112254;28;20038;-81
2021/09/20 01:31:01;;;;;;;15.77;5.80;;;;;;;4.76;89.64;99645.41;5113331;28;20406;-81
2021/09/20 01:33:27;;;;;;;18.23;5.80;;;;;;;4.75;89.77;99642.84;5094073;28;20143;-80
2021/09/20 01:35:53;;;;;;;14.10;5.97;;;;;;;4.73;89.04;99642.09;5111816;28;20118;-83
2021/09/20 01:38:20;;;;;;;16.33;6.53;;;;;;;4.73;90.02;99653.41;5113633;28;20525;-81
2021/09/20 01:40:46;;;;;;;19.52;7.50;;;;;;;4.73;89.82;99642.94;5094694;28;20067;-83
2021/09/20 01:43:12;;;;;;;16.50;5.80;;;;;;;4.74;89.34;99641.19;5111745;28;20058;-81
2021/09/20 01:45:38;;;;;;;14.60;6.22;;;;;;;4.68;89.64;99632.69;5111672;28;20031;-80
2021/09/20 01:48:05;;;;;;;16.67;5.93;;;;;;;4.68;89.38;99634.47;5094391;28;20035;-80
2021/09/20 01:50:31;;;;;;;17.75;5.55;;;;;;;4.67;89.70;99631.03;5094371;28;20044;-82
2021/09/20 01:52:57;;;;;;;13.63;5.43;;;;;;;4.67;89.40;99631.03;5077262;28;20368;-81
2021/09/20 01:55:23;;;;;;;15.15;5.78;;;;;;;4.68;89.85;99622.22;5094303;28;20039;-79
2021/09/20 01:57:49;;;;;;;16.05;5.78;;;;;;;4.68;89.78;99635.31;5112695;28;20114;-80
2021/09/20 02:00:17;;;;;;;15.63;5.82;;;;;;;4.66;89.25;99634.56;5111953;27;20368;-78
2021/09/20 02:02:43;;;;;;;;;;;;;;;4.68;89.40;99626.63;5108514;27;20088;-82
2021/09/20 02:05:10;;;;;;;18.92;5.95;;;;;;;4.69;89.20;99636.19;5111098;28;19911;-83
2021/09/20 02:07:41;;;;;;;10.38;4.28;;;;;;;4.65;89.72;99669.53;5113701;27;20031;-85
2021/09/20 02:10:08;;;;;;;20.50;6.15;;;;;;;4.68;89.25;99643.16;5113054;27;20053;-85
2021/09/20 02:12:34;;;;;;;22.52;5.85;;;;;;;4.67;89.37;99625.78;5111857;28;20084;-85
2021/09/20 02:15:00;;;;;;;18.23;6.15;;;;;;;4.69;89.22;99623.91;5078242;28;20039;-83
2021/09/20 02:17:26;;;;;;;17.65;5.88;;;;;;;4.67;89.23;99649.38;5077825;28;20028;-84
2021/09/20 02:19:52;;;;;;;11.90;4.10;;;;;;;4.67;89.05;99635.41;5094314;28;20088;-82
2021/09/20 02:22:18;;;;;;;38.80;6.43;;;;;;;4.69;89.13;99623.06;5112471;28;20035;-82
2021/09/20 02:24:44;;;;;;;20.48;6.00;;;;;;;4.70;88.95;99615.13;5110957;28;20122;-82
2021/09/20 02:27:10;;;;;;;15.48;5.40;;;;;;;4.70;88.92;99625.59;5112575;28;20078;-83
2021/09/20 02:29:35;;;;;;;19.23;5.97;;;;;;;4.68;88.92;99621.38;5111599;28;20034;-80
2021/09/20 02:32:02;;;;;;;15.55;5.50;;;;;;;4.68;89.02;99645.78;5110939;28;20088;-79
2021/09/20 02:34:29;;;;;;;21.65;5.88;;;;;;;4.66;89.14;99618.84;5073650;28;20031;-80
2021/09/20 02:36:55;;;;;;;17.70;5.70;;;;;;;4.68;89.20;99652.81;5100595;28;20034;-79
2021/09/20 02:39:23;;;;;;;21.48;5.63;;;;;;;4.65;88.55;99627.63;5114953;27;20123;-81
2021/09/20 02:41:49;;;;;;;14.40;5.35;;;;;;;4.67;88.45;99641.50;5093720;28;20031;-81
2021/09/20 02:44:15;;;;;;;13.98;4.22;;;;;;;4.67;88.59;99625.78;5093478;28;20027;-83
2021/09/20 02:46:41;;;;;;;10.70;4.72;;;;;;;4.69;88.66;99620.47;5110435;28;20463;-77
2021/09/20 02:49:07;;;;;;;15.85;5.78;;;;;;;4.64;89.15;99615.47;5110530;28;20027;-80
2021/09/20 02:51:33;;;;;;;11.43;4.78;;;;;;;4.67;89.44;99625.78;5110385;28;20346;-79
2021/09/20 02:53:59;;;;;;;13.05;4.68;;;;;;;4.62;89.17;99625.19;5111736;28;20074;-79
2021/09/20 02:56:24;;;;;;;13.88;5.70;;;;;;;4.68;89.34;99624.84;5110576;28;20092;-79
2021/09/20 02:58:50;;;;;;;15.00;4.85;;;;;;;4.66;89.50;99624.09;5111766;28;20027;-80
2021/09/20 03:01:16;;;;;;;12.95;4.20;;;;;;;4.63;89.60;99626.03;5111618;28;20118;-78
2021/09/20 03:03:42;;;;;;;15.15;5.22;;;;;;;4.64;89.42;99623.31;5114633;28;20026;-79
2021/09/20 03:06:07;;;;;;;14.07;4.90;;;;;;;4.64;90.08;99633.78;5104902;28;20118;-80
2021/09/20 03:08:33;;;;;;;15.77;5.50;;;;;;;4.69;89.76;99625.69;5083544;28;20201;-80
2021/09/20 03:10:59;;;;;;;10.07;4.47;;;;;;;4.66;89.80;99644.19;5129212;28;20053;-80
2021/09/20 03:13:25;;;;;;;19.02;5.70;;;;;;;4.66;90.06;99644.19;5125363;28;20080;-83
2021/09/20 03:15:51;;;;;;;20.05;5.88;;;;;;;4.64;89.97;99636.41;5114036;28;20028;-82
2021/09/20 03:18:17;;;;;;;14.52;5.53;;;;;;;4.67;89.97;99638.88;5115175;28;20100;-80
2021/09/20 03:20:48;;;;;;;19.30;5.80;;;;;;;4.65;89.48;99634.66;5100701;28;20031;-83
2021/09/20 03:23:14;;;;;;;11.35;4.18;;;;;;;4.64;89.90;99632.97;5132713;28;20031;-82
2021/09/20 03:25:39;;;;;;;18.35;5.25;;;;;;;4.67;89.73;99638.88;5131195;28;20034;-80
2021/09/20 03:28:05;;;;;;;11.95;4.65;;;;;;;4.67;89.72;99630.16;5131698;28;20111;-82
2021/09/20 03:30:31;;;;;;;12.45;5.78;;;;;;;4.65;90.13;99638.09;5130964;28;20256;-81
2021/09/20 03:32:57;;;;;;;17.40;5.35;;;;;;;4.65;90.04;99627.63;5132643;28;20042;-79
2021/09/20 03:35:23;;;;;;;13.43;4.60;;;;;;;4.67;90.02;99635.41;5130916;28;20031;-79
2021/09/20 03:37:50;;;;;;;9.88;4.63;;;;;;;4.65;90.30;99624.19;5132828;27;20034;-84
2021/09/20 03:40:18;;;;;;;12.93;5.13;;;;;;;4.60;89.97;99629.66;5113347;28;20134;-81
2021/09/20 03:42:44;;;;;;;17.20;4.88;;;;;;;4.63;90.36;99624.25;5072102;28;20147;-83
2021/09/20 03:45:11;;;;;;;17.50;5.70;;;;;;;4.64;90.08;99620.69;5071921;28;20058;-79
2021/09/20 03:47:37;;;;;;;14.52;5.13;;;;;;;4.66;90.28;99618.84;5051578;28;20101;-81
2021/09/20 03:50:07;;;;;;;16.85;5.40;;;;;;;4.67;90.36;99617.94;5055256;28;20620;-79
2021/09/20 03:52:33;;;;;;;10.32;4.30;;;;;;;4.68;90.53;99621.38;5073750;28;20036;-82
2021/09/20 03:55:01;;;;;;;13.73;4.82;;;;;;;4.67;90.20;99615.31;5090904;28;20507;-78
2021/09/20 03:57:27;;;;;;;10.98;4.82;;;;;;;4.63;90.64;99647.81;5073590;28;20234;-80
2021/09/20 03:59:53;;;;;;;13.13;4.65;;;;;;;4.64;90.67;99627.72;5095305;28;20122;-80
2021/09/20 04:02:18;;;;;;;11.80;5.10;;;;;;;4.66;90.81;99645.03;5085433;28;20143;-80
2021/09/20 04:04:44;;;;;;;18.42;4.63;;;;;;;4.68;90.67;99621.38;5090754;28;20027;-78
2021/09/20 04:07:12;;;;;;;13.40;4.50;;;;;;;4.66;90.49;99624.09;5078477;28;20380;-80
2021/09/20 04:09:38;;;;;;;8.98;3.55;;;;;;;4.69;90.15;99618.66;5079482;28;20035;-80
2021/09/20 04:12:04;;;;;;;15.68;4.15;;;;;;;4.65;90.04;99635.50;5096026;28;20039;-80
2021/09/20 04:14:30;;;;;;;12.85;4.30;;;;;;;4.67;90.10;99641.50;5062075;28;20044;-80
2021/09/20 04:16:56;;;;;;;11.93;4.75;;;;;;;4.72;90.71;99633.38;5095237;28;20056;-79
2021/09/20 04:19:22;;;;;;;12.63;4.22;;;;;;;4.67;90.23;99624.91;5110456;27;20049;-79
2021/09/20 04:21:48;;;;;;;9.30;3.40;;;;;;;4.67;90.10;99631.03;5114057;28;20036;-81
2021/09/20 04:24:14;;;;;;;10.00;4.63;;;;;;;4.66;89.95;99633.69;5079596;28;20632;-81
2021/09/20 04:26:39;;;;;;;22.30;5.05;;;;;;;4.68;90.25;99637.94;5080100;28;20043;-81
2021/09/20 04:29:05;;;;;;;9.07;4.00;;;;;;;4.71;90.19;99631.72;5079557;28;20555;-80
2021/09/20 04:31:34;;;;;;;14.05;4.20;;;;;;;4.69;90.10;99644.88;5096821;28;20420;-81
2021/09/20 04:34:03;;;;;;;18.58;4.00;;;;;;;4.69;90.24;99637.00;5095436;28;20050;-81
2021/09/20 04:36:30;;;;;;;14.40;3.97;;;;;;;4.69;90.19;99647.50;5062228;28;20031;-80
2021/09/20 04:38:56;;;;;;;11.07;3.67;;;;;;;4.72;89.96;99648.25;5078541;28;20036;-79
2021/09/20 04:41:25;;;;;;;14.82;4.55;;;;;;;4.73;90.21;99629.84;5111834;28;20387;-82
2021/09/20 04:43:51;;;;;;;9.75;3.28;;;;;;;4.75;90.21;99637.59;5096663;28;20027;-81
2021/09/20 04:46:17;;;;;;;11.20;3.83;;;;;;;4.78;89.83;99658.41;5078338;28;20024;-82
2021/09/20 04:48:43;;;;;;;9.48;3.45;;;;;;;4.78;89.96;99637.47;5113222;28;20042;-80
2021/09/20 04:51:08;;;;;;;13.85;3.83;;;;;;;4.77;89.70;99654.09;5130098;27;20024;-84
2021/09/20 04:53:34;;;;;;;11.10;3.58;;;;;;;4.78;89.46;99650.56;5096584;28;20553;-81
2021/09/20 04:56:01;;;;;;;12.15;4.40;;;;;;;4.73;89.59;99637.69;5114649;28;20077;-80
2021/09/20 04:58:27;;;;;;;10.93;3.72;;;;;;;4.77;89.84;99661.97;5098007;28;20035;-81
2021/09/20 05:00:57;;;;;;;12.13;4.63;;;;;;;4.80;89.88;99644.31;5081480;28;20494;-85
2021/09/20 05:03:25;;;;;;;13.15;3.80;;;;;;;4.79;89.52;99639.16;5096346;28;20460;-84
2021/09/20 05:05:51;;;;;;;8.95;4.00;;;;;;;4.80;89.56;99651.34;5096812;28;20039;-84
2021/09/20 05:08:17;;;;;;;8.77;4.32;;;;;;;4.84;89.82;99658.09;5080741;28;20038;-80
2021/09/20 05:10:44;;;;;;;8.93;3.65;;;;;;;4.82;89.58;99649.47;5063798;28;20076;-78
2021/09/20 05:13:10;;;;;;;14.35;4.22;;;;;;;4.84;89.74;99652.84;5114399;28;20024;-85
2021/09/20 05:15:37;;;;;;;12.05;4.43;;;;;;;4.88;90.39;99649.13;5101683;28;20031;-81
2021/09/20 05:18:02;;;;;;;13.55;4.57;;;;;;;4.88;89.85;99649.13;5122272;28;20023;-80
2021/09/20 05:20:28;;;;;;;11.00;4.65;;;;;;;4.89;90.26;99677.03;5071740;28;20032;-80
2021/09/20 05:23:01;;;;;;;16.45;4.22;;;;;;;4.84;90.15;99668.56;5100483;28;20036;-81
2021/09/20 05:25:34;;;;;;;16.85;5.22;;;;;;;4.81;90.10;99671.34;5080998;28;20035;-81
2021/09/20 05:28:03;;;;;;;13.65;4.32;;;;;;;4.79;90.11;99654.88;5079668;28;20043;-81
2021/09/20 05:30:29;;;;;;;15.55;4.90;;;;;;;4.84;89.92;99647.59;5113488;28;20046;-79
2021/09/20 05:32:59;;;;;;;13.90;5.03;;;;;;;4.85;89.92;99639.66;5114008;28;20396;-82
2021/09/20 05:35:28;;;;;;;22.35;7.20;;;;;;;4.83;90.03;99656.41;5079486;28;20040;-85
2021/09/20 05:37:54;;;;;;;21.15;7.22;;;;;;;4.86;90.14;99651.84;5097769;28;20133;-81
2021/09/20 05:40:22;;;;;;;18.40;6.55;;;;;;;4.86;89.83;99641.34;5112945;28;20096;-82
2021/09/20 05:42:48;;;;;;;13.45;6.70;;;;;;;4.89;89.93;99650.81;5096783;28;20031;-80
2021/09/20 05:45:13;;;;;;;16.10;6.38;;;;;;;4.89;90.01;99656.06;5095671;28;20054;-80
2021/09/20 05:47:40;;;;;;;15.35;6.03;;;;;;;4.87;89.62;99631.69;5095460;28;20038;-81
2021/09/20 05:50:08;;;;;;;16.70;5.30;;;;;;;4.93;90.28;99646.25;5079810;28;20038;-82
2021/09/20 05:52:36;;;;;;;18.77;5.45;;;;;;;4.92;89.74;99666.41;5085726;28;20061;-82
2021/09/20 05:55:08;;;;;;;21.55;5.28;;;;;;;4.92;90.05;99655.91;5100814;28;20029;-84
2021/09/20 05:57:41;;;;;;;16.98;5.40;;;;;;;4.97;89.82;99664.38;5095926;28;20040;-85
2021/09/20 06:00:08;;;;;;;18.10;6.63;;;;;;;4.99;90.04;99645.94;5113400;28;20035;-81
2021/09/20 06:02:38;;;;;;;9.20;4.13;;;;;;;4.98;89.83;99649.47;5080172;28;20058;-78
2021/09/20 06:05:05;;;;;;;;;;;;;;;5.03;89.54;99668.41;5062751;28;20126;-82
2021/09/20 06:07:31;;;;;;;14.20;4.35;;;;;;;5.05;89.80;99660.47;5114147;28;20379;-81
2021/09/20 06:09:57;;;;;;;18.90;4.72;;;;;;;5.05;89.28;99639.50;5079759;28;20031;-80
2021/09/20 06:12:24;;;;;;;15.00;4.18;;;;;;;5.02;89.80;99664.97;5087816;28;20469;-78
2021/09/20 06:14:50;;;;;;;13.15;3.65;;;;;;;5.08;89.50;99665.56;5104698;28;20028;-81
2021/09/20 06:17:20;;;;;;;14.93;4.50;;;;;;;5.08;89.83;99661.16;5040778;28;20079;-84
2021/09/20 06:19:47;;;;;;;17.20;4.68;;;;;;;5.05;89.24;99655.22;5023421;28;20043;-83
2021/09/20 06:22:14;;;;;;;11.80;4.15;;;;;;;5.05;88.88;99657.84;5038828;28;20064;-82
2021/09/20 06:24:41;;;;;;;14.93;4.90;;;;;;;5.13;89.24;99674.00;5022702;28;20373;-82
2021/09/20 06:27:08;;;;;;;15.75;3.90;;;;;;;5.09;89.24;99677.75;5039431;28;20086;-83
2021/09/20 06:29:36;;;;;;;13.52;4.45;;;;;;;5.13;89.22;99664.34;5072016;28;20028;-84
2021/09/20 06:32:04;;;;;;;12.23;4.05;;;;;;;5.15;89.05;99682.66;5024666;28;20072;-85
2021/09/20 06:34:30;;;;;;;12.73;4.13;;;;;;;5.18;89.01;99666.72;5038449;28;20044;-82
2021/09/20 06:36:56;;;;;;;14.38;5.05;;;;;;;5.21;89.13;99671.81;5038761;28;20143;-82
2021/09/20 06:39:22;;;;;;;17.88;4.32;;;;;;;5.20;89.05;99680.63;5037799;28;20119;-84
2021/09/20 06:41:51;;;;;;;10.25;4.22;;;;;;;5.16;89.17;99681.72;5021576;28;20039;-83
2021/09/20 06:44:23;;;;;;;10.02;3.70;;;;;;;5.20;89.24;99685.84;5022202;28;20028;-85
2021/09/20 06:46:51;;;;;;;8.80;3.45;;;;;;;5.20;89.32;99696.34;5057330;28;20064;-85
2021/09/20 06:49:23;;;;;;;11.00;3.90;;;;;;;5.20;88.88;99696.34;5079447;28;20039;-83
2021/09/20 06:51:51;;;;;;;7.93;3.17;;;;;;;5.24;89.05;99705.72;5048093;28;20036;-81
2021/09/20 06:54:20;;;;;;;6.07;3.03;;;;;;;5.17;88.85;99706.97;5114420;28;20040;-81
2021/09/20 06:56:47;;;;;;;;;;;;;;;5.16;89.23;99685.19;5080089;28;20098;-85
2021/09/20 06:59:15;;;;;;;6.70;2.78;;;;;;;5.17;89.27;99699.97;5080290;28;19912;-82
2021/09/20 07:01:42;;;;;;;10.98;3.53;;;;;;;5.19;89.39;99673.66;5063852;28;20039;-82
2021/09/20 07:04:08;;;;;;;11.15;2.92;;;;;;;5.22;89.14;99686.63;5080423;28;20027;-80
2021/09/20 07:06:34;;;;;;;7.07;2.65;;;;;;;5.23;89.03;99684.84;5065038;28;20197;-82
2021/09/20 07:09:06;;;;;;;9.60;3.28;;;;;;;5.24;88.89;99697.88;5080577;28;20031;-83
2021/09/20 07:11:33;;;;;;;11.38;3.05;;;;;;;5.28;89.02;99678.44;5081502;28;20027;-83
2021/09/20 07:14:02;;;;;;;8.18;4.07;;;;;;;5.22;89.17;99672.66;5099072;28;20058;-84
2021/09/20 07:16:30;;;;;;;11.40;4.25;;;;;;;5.25;88.63;99681.19;5060396;28;20040;-82
2021/09/20 07:19:07;;;;;;;11.55;4.40;;;;;;;5.29;89.17;99661.75;5076435;28;20044;-84
2021/09/20 07:21:35;;;;;;;8.67;4.90;;;;;;;5.28;88.95;99688.06;5061244;28;20038;-84
2021/09/20 07:24:04;;;;;;;23.27;6.53;;;;;;;5.30;88.76;99673.94;5020470;28;20037;-80
2021/09/20 07:26:38;;;;;;;13.10;5.03;;;;;;;5.30;89.23;99666.06;5024355;28;20063;-86
2021/09/20 07:29:06;;;;;;;9.90;4.35;;;;;;;5.32;89.21;99685.19;5054331;28;20037;-84
2021/09/20 07:31:32;;;;;;;10.15;4.70;;;;;;;5.32;88.92;99668.59;5020514;28;20564;-85
2021/09/20 07:34:03;;;;;;;9.60;3.63;;;;;;;5.34;89.00;99671.97;5005373;28;20041;-83
2021/09/20 07:36:30;;;;;;;15.80;4.90;;;;;;;5.37;89.33;99677.06;5015048;28;20092;-81
2021/09/20 07:38:56;;;;;;;10.90;3.83;;;;;;;5.32;89.45;99711.41;5015715;28;20044;-82
2021/09/20 07:41:29;;;;;;;13.32;4.85;;;;;;;5.39;88.87;99682.22;5018381;28;20498;-81
2021/09/20 07:43:59;;;;;;;12.60;5.25;;;;;;;5.43;88.64;99683.75;5002949;28;20088;-83
2021/09/20 07:46:32;;;;;;;6.93;3.05;;;;;;;5.43;88.59;99678.50;4983527;28;20042;-81
2021/09/20 07:48:59;;;;;;;10.13;4.00;;;;;;;5.43;88.48;99673.25;4965326;28;20740;-86
2021/09/20 07:51:26;;;;;;;15.32;4.22;;;;;;;5.47;88.72;99674.75;4980842;28;20089;-85
2021/09/20 07:53:52;;;;;;;10.73;4.00;;;;;;;5.41;88.79;99681.22;4996056;28;20140;-80
2021/09/20 07:56:31;;;;;;;11.05;3.70;;;;;;;5.41;88.53;99678.59;4996600;28;20055;-80
2021/09/20 07:59:02;;;;;;;8.45;3.17;;;;;;;5.51;89.09;99678.91;4965368;28;20068;-87
2021/09/20 08:01:34;;;;;;;16.25;4.35;;;;;;;5.52;88.47;99683.25;4974698;28;20038;-83
2021/09/20 08:04:01;;;;;;;11.07;3.80;;;;;;;5.53;89.06;99674.41;4967254;28;20487;-81
2021/09/20 08:06:29;;;;;;;5.83;2.30;;;;;;;5.50;88.42;99685.09;4958809;28;20049;-80
2021/09/20 08:08:55;;;;;;;5.13;2.28;;;;;;;5.50;89.06;99666.72;5002162;28;20272;-83
2021/09/20 08:11:21;;;;;;;10.30;3.42;;;;;;;5.48;88.73;99686.94;5002987;28;20088;-83
2021/09/20 08:13:49;;;;;;;9.52;3.63;;;;;;;5.49;88.74;99696.50;5003820;28;20175;-82
2021/09/20 08:16:19;;;;;;;14.32;3.92;;;;;;;5.50;88.92;99690.34;5018011;28;20029;-85
2021/09/20 08:18:47;;;;;;;6.93;3.30;;;;;;;5.45;88.80;99669.59;5017893;28;20075;-82
2021/09/20 08:21:14;;;;;;;10.32;3.10;;;;;;;5.54;89.21;99667.41;4984302;28;20553;-86
2021/09/20 08:23:45;;;;;;;10.90;2.97;;;;;;;5.54;89.21;99668.25;5056610;28;20036;-80
2021/09/20 08:26:16;;;;;;;10.20;2.90;;;;;;;5.60;89.49;99662.66;5027322;28;20123;-83
2021/09/20 08:28:43;;;;;;;7.43;2.40;;;;;;;5.57;89.05;99681.19;5044051;28;20475;-85
2021/09/20 08:31:09;;;;;;;7.40;3.45;;;;;;;5.56;88.77;99668.16;5043893;28;20066;-85
2021/09/20 08:33:35;;;;;;;11.07;3.13;;;;;;;5.53;88.32;99668.34;5058938;28;20037;-80
2021/09/20 08:36:29;;;;;;;13.55;5.15;;;;;;;5.60;88.60;99675.75;5047200;28;20042;-83
2021/09/20 08:39:05;;;;;;;9.68;3.88;;;;;;;5.60;88.76;99677.56;5001179;28;20033;-83
2021/09/20 08:42:00;;;;;;;8.82;4.65;;;;;;;5.63;88.67;99667.75;4983057;28;20089;-84
2021/09/20 08:44:34;;;;;;;14.27;3.72;;;;;;;5.65;88.59;99660.59;4944646;28;20039;-83
2021/09/20 08:47:04;;;;;;;11.10;3.95;;;;;;;5.69;88.42;99697.19;4958432;28;20033;-81
2021/09/20 08:49:33;;;;;;;16.15;4.30;;;;;;;5.67;88.59;99656.13;4943916;28;20039;-82
2021/09/20 08:52:04;;;;;;;19.70;4.20;;;;;;;5.65;88.84;99665.84;4958997;28;20074;-81
2021/09/20 08:54:38;;;;;;;10.52;3.70;;;;;;;5.75;88.43;99665.34;4975528;28;20432;-83
2021/09/20 08:57:08;;;;;;;10.30;3.72;;;;;;;5.76;88.66;99664.41;4921128;29;20036;-81
2021/09/20 08:59:35;;;;;;;13.18;3.92;;;;;;;5.71;88.81;99663.81;4907958;29;20206;-85
2021/09/20 09:02:15;;;;;;;9.30;3.83;;;;;;;5.69;88.33;99660.44;4919120;29;20052;-85
2021/09/20 09:04:43;;;;;;;16.00;4.40;;;;;;;5.76;88.72;99653.91;4920384;29;20130;-83
2021/09/20 09:07:19;;;;;;;9.88;3.95;;;;;;;5.80;89.45;99669.38;4917488;29;20044;-81
2021/09/20 09:09:48;;;;;;;11.88;4.35;;;;;;;5.81;88.98;99672.88;4925642;28;20085;-79
2021/09/20 09:12:32;;;;;;;12.98;4.07;;;;;;;5.76;88.61;99682.78;4976027;28;20085;-82
2021/09/20 09:15:01;;;;;;;16.95;4.93;;;;;;;5.81;89.07;99712.22;4960493;28;20046;-83
2021/09/20 09:17:30;;;;;;;11.13;4.47;;;;;;;5.79;88.42;99670.31;4945414;28;20081;-81
2021/09/20 09:20:10;;;;;;;12.30;4.95;;;;;;;5.86;89.22;99657.69;4958759;28;20050;-83
2021/09/20 09:22:59;;;;;;;9.75;3.88;;;;;;;5.83;88.60;99689.34;4943529;28;20054;-81
2021/09/20 09:25:37;;;;;;;13.63;3.60;;;;;;;5.84;88.55;99667.44;4975272;28;20065;-83
2021/09/20 09:28:42;;;;;;;13.95;4.07;;;;;;;5.81;88.87;99665.00;4958244;28;20445;-82
2021/09/20 09:31:09;;;;;;;8.90;3.50;;;;;;;5.85;88.93;99679.63;4927256;28;20110;-83
2021/09/20 09:33:44;;;;;;;8.95;3.85;;;;;;;5.80;88.71;99673.78;4959251;28;20094;-82
2021/09/20 09:36:14;;;;;;;15.50;3.97;;;;;;;5.85;89.17;99686.66;4961119;28;20039;-85
2021/09/20 09:39:13;;;;;;;10.90;3.45;;;;;;;5.82;89.02;99671.94;4981820;28;20050;-83
2021/09/20 09:41:43;;;;;;;10.32;4.20;;;;;;;5.85;88.95;99666.50;4940694;28;20034;-84
2021/09/20 09:44:13;;;;;;;14.73;4.32;;;;;;;5.90;88.86;99658.38;4976084;28;20034;-83
2021/09/20 09:46:59;;;;;;;10.70;3.78;;;;;;;5.91;88.82;99671.41;4944038;28;20496;-82
2021/09/20 09:49:28;;;;;;;8.63;3.73;;;;;;;5.96;89.13;99674.59;4944470;28;20047;-81
2021/09/20 09:52:11;;;;;;;13.20;3.90;;;;;;;5.93;88.51;99650.28;4944490;28;20332;-83
2021/09/20 09:54:41;;;;;;;7.97;2.95;;;;;;;5.91;88.40;99671.41;4911560;28;20038;-81
2021/09/20 09:57:21;;;;;;;11.13;4.30;;;;;;;5.98;88.73;99683.28;4928149;28;20050;-82
2021/09/20 10:00:12;;;;;;;12.50;3.65;;;;;;;5.96;88.59;99671.13;4960393;28;20050;-83
2021/09/20 10:02:43;;;;;;;12.60;3.83;;;;;;;5.96;88.41;99655.38;4956865;28;20061;-82
2021/09/20 10:05:29;;;;;;;14.75;4.85;;;;;;;6.03;88.70;99675.13;4977496;28;20078;-82
2021/09/20 10:07:59;;;;;;;11.65;4.20;;;;;;;6.04;88.47;99670.72;5005794;28;20051;-85
2021/09/20 10:10:28;;;;;;;6.30;3.78;;;;;;;6.07;88.72;99654.78;5038330;28;20036;-81
2021/09/20 10:12:58;;;;;;;10.02;4.13;;;;;;;6.06;88.92;99658.34;5040559;28;20050;-84
2021/09/20 10:15:31;;;;;;;8.48;4.00;;;;;;;6.05;89.43;99664.53;5083071;28;20035;-84
2021/09/20 10:18:04;;;;;;;12.20;4.07;;;;;;;6.11;88.85;99661.56;5080831;28;20043;-81
2021/09/20 10:20:42;;;;;;;8.00;2.90;;;;;;;6.10;88.57;99654.59;5079577;28;20059;-83
2021/09/20 10:23:11;;;;;;;16.70;5.22;;;;;;;6.09;89.10;99652.91;5067841;28;20562;-84
2021/09/20 10:25:40;;;;;;;12.48;3.85;;;;;;;6.15;88.77;99660.44;5061370;28;20036;-81
2021/09/20 10:28:07;;;;;;;9.30;2.90;;;;;;;6.15;89.04;99668.31;5059488;28;20044;-83
2021/09/20 10:30:35;;;;;;;7.18;3.33;;;;;;;6.15;88.28;99657.81;5026727;28;20115;-80
2021/09/20 10:33:16;;;;;;;;;;;;;;;;;;;;;
2021/09/20 10:35:54;;;;;;;4.95;2.17;;;;;;;6.18;88.34;99683.03;5045139;28;20040;-81
2021/09/20 10:38:21;;;;;;;8.27;2.70;;;;;;;6.17;88.74;99691.84;5043322;28;20052;-81
2021/09/20 10:41:13;;;;;;;4.78;2.58;;;;;;;6.20;88.76;99668.03;5075543;28;20039;-84
2021/09/20 10:44:00;;;;;;;9.57;2.80;;;;;;;6.18;89.23;99672.53;5077081;28;20028;-82
2021/09/20 10:46:28;;;;;;;6.70;2.70;;;;;;;6.21;88.44;99661.84;5060854;28;20038;-82
2021/09/20 10:49:21;;;;;;;11.38;3.35;;;;;;;6.27;88.27;99662.31;5062870;28;20031;-85
2021/09/20 10:52:05;;;;;;;6.93;2.47;;;;;;;6.27;89.06;99688.59;5099612;28;20035;-82
2021/09/20 10:54:37;;;;;;;4.30;2.22;;;;;;;6.27;88.90;99662.31;5097555;28;20028;-82
2021/09/20 10:57:30;;;;;;;7.88;2.92;;;;;;;6.36;88.81;99665.34;5080025;28;20392;-81
2021/09/20 11:00:21;;;;;;;5.75;2.85;;;;;;;6.34;88.74;99667.22;5038919;28;20468;-85
2021/09/20 11:03:21;;;;;;;4.45;1.92;;;;;;;6.32;88.14;99652.38;5057927;28;20489;-83
2021/09/20 11:06:19;;;;;;;5.30;2.20;;;;;;;6.38;88.61;99684.47;5057106;28;20090;-83
2021/09/20 11:08:57;;;;;;;5.40;2.65;;;;;;;6.38;88.46;99666.09;5026564;28;20032;-86
2021/09/20 11:11:37;;;;;;;5.88;2.40;;;;;;;6.34;88.57;99672.47;5059858;28;20051;-83
2021/09/20 11:14:11;;;;;;;7.43;2.95;;;;;;;6.32;88.55;99657.63;5042936;28;20028;-82
2021/09/20 11:16:57;;;;;;;4.78;2.58;;;;;;;6.36;88.38;99674.06;5026178;28;20586;-80
2021/09/20 11:19:45;;;;;;;4.85;2.30;;;;;;;6.36;88.19;99666.19;5042223;28;20075;-85
2021/09/20 11:22:35;;;;;;;4.18;2.50;;;;;;;6.34;88.90;99675.09;4982908;28;20088;-82
2021/09/20 11:25:06;;;;;;;9.57;2.95;;;;;;;6.39;88.77;99671.28;4960933;28;20039;-81
2021/09/20 11:27:40;;;;;;;6.60;2.83;;;;;;;6.39;88.78;99681.78;4928233;28;20050;-83
2021/09/20 11:35:03;;;;;;;8.85;3.40;;;;;;;6.34;88.30;99682.97;4889204;29;20130;-81
2021/09/20 11:37:32;;;;;;;6.22;3.00;;;;;;;6.38;88.75;99673.97;4887422;29;20131;-81
2021/09/20 11:40:24;;;;;;;7.53;3.10;;;;;;;6.34;89.72;99669.84;4890457;29;20139;-82
2021/09/20 11:42:57;;;;;;;6.38;3.30;;;;;;;6.35;89.13;99679.41;4888379;29;20048;-84
2021/09/20 11:45:28;;;;;;;8.40;3.33;;;;;;;6.37;89.41;99674.91;4886463;29;20036;-83
2021/09/20 11:48:07;;;;;;;5.40;2.83;;;;;;;6.36;89.73;99670.59;4902992;29;20051;-82
2021/09/20 11:50:37;;;;;;;7.45;3.17;;;;;;;6.36;89.38;99670.59;4874692;29;20053;-81
2021/09/20 11:53:07;;;;;;;5.38;2.72;;;;;;;6.36;89.10;99660.94;4862525;29;20045;-84